Time;durP1;ratioP1;P1;durP2;ratioP2;P2;SDS_P1;SDS_P2;PMS_P1;PMS_P2;Temp;Humidity;BMP_temperature;BMP_pressure;BME280_temperature;BME280_humidity;BME280_pressure;Samples;Min_cycle;Max_cycle;Signal;HPM_P1;HPM_P2
2022/08/29 00:00:20;;;;;;;7.95;6.55;;;;;;;22.88;72.61;94462.88;5053954;28;20209;-66
2022/08/29 00:02:51;;;;;;;13.55;7.53;;;;;;;22.92;72.68;94460.66;5053738;28;20233;-63
2022/08/29 00:05:20;;;;;;;10.98;6.95;;;;;;;22.96;73.04;94456.63;5053865;28;20219;-64
2022/08/29 00:07:45;;;;;;;13.48;7.22;;;;;;;23.11;71.95;94475.25;5053546;28;20193;-66
2022/08/29 00:10:11;;;;;;;14.45;7.38;;;;;;;23.12;71.56;94475.06;5053371;28;20217;-63
2022/08/29 00:12:37;;;;;;;21.30;6.63;;;;;;;23.00;71.99;94473.38;5053733;28;20193;-63
2022/08/29 00:15:06;;;;;;;10.48;6.78;;;;;;;22.73;72.86;94459.78;5075221;22;20224;-65
2022/08/29 00:17:31;;;;;;;10.63;7.18;;;;;;;22.60;73.06;94462.44;5072131;28;20578;-63
2022/08/29 00:19:57;;;;;;;8.60;7.32;;;;;;;22.36;73.63;94457.97;5058258;28;20217;-63
2022/08/29 00:22:22;;;;;;;9.52;6.43;;;;;;;22.30;74.22;94445.84;5053441;28;20182;-64
2022/08/29 00:24:48;;;;;;;10.18;6.85;;;;;;;22.49;72.15;94468.25;5053317;28;20699;-64
2022/08/29 00:27:13;;;;;;;12.88;7.70;;;;;;;22.38;73.13;94454.13;5053314;28;20182;-64
2022/08/29 00:29:39;;;;;;;16.13;7.45;;;;;;;22.45;73.11;94465.28;5053638;28;20210;-63
2022/08/29 00:32:04;;;;;;;11.43;7.97;;;;;;;22.61;72.17;94469.22;5053140;28;20239;-65
2022/08/29 00:34:30;;;;;;;7.63;6.93;;;;;;;22.56;71.27;94476.78;5053432;28;20209;-63
2022/08/29 00:36:56;;;;;;;13.77;7.43;;;;;;;22.45;73.22;94454.91;5053244;28;20189;-64
2022/08/29 00:39:22;;;;;;;13.40;7.28;;;;;;;22.43;73.13;94461.28;5053186;28;20605;-65
2022/08/29 00:41:48;;;;;;;11.82;6.45;;;;;;;22.52;71.54;94484.16;5053156;28;20205;-65
2022/08/29 00:44:13;;;;;;;12.30;6.50;;;;;;;22.33;72.13;94468.72;5052896;28;20209;-63
2022/08/29 00:46:39;;;;;;;10.82;7.05;;;;;;;22.08;72.62;94455.66;5051691;28;20669;-63
2022/08/29 00:49:10;;;;;;;11.15;7.05;;;;;;;21.95;73.38;94452.31;5053214;28;20218;-64
2022/08/29 00:51:36;;;;;;;11.52;7.10;;;;;;;21.80;74.61;94438.78;5053067;28;20181;-65
2022/08/29 00:54:06;;;;;;;9.70;6.68;;;;;;;21.90;75.40;94436.63;5052696;28;20213;-64
2022/08/29 00:56:33;;;;;;;14.70;7.57;;;;;;;22.07;75.19;94448.09;5053426;28;20204;-64
2022/08/29 01:01:31;;;;;;;10.50;7.18;;;;;;;22.31;74.79;94458.56;5079369;22;20604;-67
2022/08/29 01:03:57;;;;;;;9.82;7.03;;;;;;;22.31;75.43;94450.78;5065180;28;20513;-63
2022/08/29 01:06:25;;;;;;;12.23;7.18;;;;;;;22.16;76.48;94441.72;5053080;28;20647;-65
2022/08/29 01:08:50;;;;;;;11.10;6.30;;;;;;;22.21;76.53;94442.66;5052633;28;20233;-64
2022/08/29 01:14:02;;;;;;;9.30;7.35;;;;;;;22.43;75.37;94466.47;5065540;22;20311;-64
2022/08/29 01:16:28;;;;;;;12.93;6.80;;;;;;;22.51;74.96;94461.84;5072706;28;20197;-63
2022/08/29 01:19:00;;;;;;;12.20;7.30;;;;;;;22.55;75.01;94464.81;5066098;28;20205;-64
2022/08/29 01:21:38;;;;;;;13.60;6.95;;;;;;;22.35;74.52;94462.34;5052585;28;20264;-64
2022/08/29 01:24:38;;;;;;;11.65;7.25;;;;;;;22.21;75.07;94467.78;5066053;22;20624;-63
2022/08/29 01:27:03;;;;;;;11.32;7.03;;;;;;;21.91;74.99;94464.88;5071057;28;20622;-64
2022/08/29 01:29:29;;;;;;;8.35;6.53;;;;;;;21.75;75.14;94467.88;5061209;28;20206;-64
2022/08/29 01:31:54;;;;;;;10.18;7.15;;;;;;;21.58;74.73;94466.69;5051009;28;20185;-62
2022/08/29 01:34:20;;;;;;;13.75;7.57;;;;;;;21.55;75.10;94462.72;5051940;28;20202;-62
2022/08/29 01:37:01;;;;;;;12.82;6.72;;;;;;;21.41;75.72;94450.03;5051077;28;20185;-65
2022/08/29 01:39:33;;;;;;;10.27;6.88;;;;;;;21.29;77.06;94442.06;5051004;28;20221;-64
2022/08/29 01:42:03;;;;;;;13.23;7.45;;;;;;;21.18;77.66;94434.13;5050967;28;20197;-66
2022/08/29 01:44:29;;;;;;;14.30;7.97;;;;;;;21.08;78.87;94429.34;5052443;28;20293;-64
2022/08/29 01:46:58;;;;;;;9.15;6.82;;;;;;;20.97;79.88;94435.06;5052174;28;20224;-67
2022/08/29 01:49:23;;;;;;;11.50;8.07;;;;;;;21.01;80.27;94454.34;5052074;28;20651;-65
2022/08/29 01:51:50;;;;;;;18.88;8.98;;;;;;;20.94;80.85;94463.91;5052015;28;20220;-63
2022/08/29 01:54:16;;;;;;;17.20;7.90;;;;;;;20.99;80.76;94463.31;5052000;28;20235;-64
2022/08/29 01:56:45;;;;;;;12.70;8.27;;;;;;;20.96;81.15;94467.09;5052000;28;20718;-64
2022/08/29 01:59:14;;;;;;;13.07;7.65;;;;;;;20.88;82.07;94469.88;5063306;22;20653;-63
2022/08/29 02:01:47;;;;;;;9.45;7.53;;;;;;;20.99;81.57;94478.84;5071807;28;20189;-65
2022/08/29 02:04:12;;;;;;;10.85;7.30;;;;;;;20.98;81.62;94482.41;5061471;28;20213;-67
2022/08/29 02:06:39;;;;;;;14.98;8.60;;;;;;;20.82;82.70;94468.88;5050505;28;20250;-65
2022/08/29 02:09:05;;;;;;;12.65;7.95;;;;;;;20.86;82.70;94477.81;5052043;28;20206;-62
2022/08/29 02:11:31;;;;;;;10.18;8.75;;;;;;;20.79;83.07;94473.63;5051727;28;20581;-64
2022/08/29 02:13:58;;;;;;;13.68;7.82;;;;;;;20.69;83.62;94465.44;5051260;28;20220;-65
2022/08/29 02:16:26;;;;;;;14.82;7.45;;;;;;;20.74;82.80;94487.16;5049625;28;20194;-64
2022/08/29 02:18:52;;;;;;;11.63;7.68;;;;;;;20.64;84.17;94463.47;5050162;28;20224;-64
2022/08/29 02:21:21;;;;;;;11.57;8.57;;;;;;;20.48;84.88;94458.63;5051432;28;20190;-66
2022/08/29 02:23:48;;;;;;;13.73;7.78;;;;;;;20.61;83.91;94469.03;5051413;28;20205;-65
2022/08/29 02:26:19;;;;;;;14.48;8.68;;;;;;;20.51;84.90;94468.59;5050032;28;20561;-63
2022/08/29 02:28:45;;;;;;;12.88;8.27;;;;;;;20.50;85.03;94466.22;5051451;28;20221;-66
2022/08/29 02:31:11;;;;;;;14.77;7.95;;;;;;;20.63;84.68;94471.41;5050114;28;20191;-65
2022/08/29 02:33:37;;;;;;;13.48;8.02;;;;;;;20.80;84.01;94483.78;5051519;28;20265;-64
2022/08/29 02:36:05;;;;;;;10.90;7.85;;;;;;;20.76;84.22;94471.44;5050029;28;20209;-63
2022/08/29 02:38:30;;;;;;;10.98;7.93;;;;;;;20.90;83.49;94483.38;5051168;28;20201;-64
2022/08/29 02:40:56;;;;;;;11.30;7.50;;;;;;;20.89;83.44;94486.97;5050041;28;20193;-65
2022/08/29 02:43:23;;;;;;;9.73;8.05;;;;;;;21.06;82.79;94495.97;5051049;28;20182;-65
2022/08/29 02:45:48;;;;;;;14.45;8.20;;;;;;;21.08;83.08;94493.97;5051181;28;20251;-65
2022/08/29 02:48:15;;;;;;;11.13;7.85;;;;;;;20.69;83.81;94480.94;5051207;28;20187;-63
2022/08/29 02:50:44;;;;;;;9.27;7.85;;;;;;;20.77;83.84;94484.16;5050987;28;20204;-63
2022/08/29 02:53:10;;;;;;;11.00;7.32;;;;;;;20.86;83.40;94489.94;5049647;28;20181;-63
2022/08/29 02:55:37;;;;;;;11.75;7.72;;;;;;;20.77;83.76;94483.34;5051358;28;20189;-63
2022/08/29 02:58:04;;;;;;;10.73;8.23;;;;;;;20.77;83.66;94489.31;5050918;28;20205;-64
2022/08/29 03:00:32;;;;;;;12.30;7.80;;;;;;;20.78;83.36;94495.28;5051173;28;20210;-66
2022/08/29 03:02:58;;;;;;;13.43;8.02;;;;;;;20.85;83.70;94490.91;5051064;28;20193;-64
2022/08/29 03:05:27;;;;;;;9.70;7.82;;;;;;;20.91;84.11;94498.69;5049582;28;20217;-63
2022/08/29 03:07:57;;;;;;;11.43;7.93;;;;;;;20.82;85.20;94481.00;5050967;28;20186;-62
2022/08/29 03:10:23;;;;;;;13.57;8.02;;;;;;;20.86;85.34;94487.38;5050544;28;20220;-63
2022/08/29 03:12:49;;;;;;;15.52;8.70;;;;;;;21.01;84.96;94500.13;5051020;28;20188;-62
2022/08/29 03:15:15;;;;;;;10.88;8.50;;;;;;;20.93;86.06;94488.94;5051299;28;20209;-64
2022/08/29 03:17:41;;;;;;;11.18;8.70;;;;;;;21.01;85.76;94500.88;5050735;28;20217;-63
2022/08/29 03:20:08;;;;;;;11.43;8.40;;;;;;;21.21;84.88;94516.47;5049743;28;20205;-64
2022/08/29 03:22:34;;;;;;;13.75;9.30;;;;;;;21.16;85.55;94498.97;5049210;28;20182;-63
2022/08/29 03:25:01;;;;;;;11.05;8.48;;;;;;;21.13;85.98;94498.56;5050603;28;20212;-64
2022/08/29 03:27:28;;;;;;;12.30;7.95;;;;;;;21.24;85.78;94505.72;5053660;28;20716;-64
2022/08/29 03:29:54;;;;;;;13.38;9.68;;;;;;;21.41;84.94;94525.03;5052922;28;20264;-64
2022/08/29 03:32:20;;;;;;;12.57;9.02;;;;;;;21.40;84.47;94526.81;5052914;28;20204;-65
2022/08/29 03:34:45;;;;;;;12.20;9.27;;;;;;;21.31;84.38;94527.22;5063323;22;20212;-65
2022/08/29 03:37:11;;;;;;;15.27;9.77;;;;;;;21.19;84.78;94519.25;5074292;28;20303;-64
2022/08/29 03:39:37;;;;;;;14.90;9.85;;;;;;;21.06;86.09;94502.91;5061918;28;20217;-65
2022/08/29 03:42:04;;;;;;;16.13;10.00;;;;;;;21.03;86.14;94501.53;5053999;28;20675;-64
2022/08/29 03:44:32;;;;;;;13.98;9.20;;;;;;;20.98;86.16;94501.28;5054177;28;20210;-66
2022/08/29 03:46:57;;;;;;;15.38;9.77;;;;;;;21.05;85.79;94507.28;5054047;28;20185;-64
2022/08/29 03:49:23;;;;;;;13.43;8.88;;;;;;;21.26;85.74;94520.06;5054108;28;20292;-65
2022/08/29 03:51:49;;;;;;;16.40;9.20;;;;;;;21.19;84.78;94532.16;5052544;28;20199;-66
2022/08/29 03:54:14;;;;;;;14.80;9.25;;;;;;;21.05;85.05;94527.97;5052661;28;20213;-65
2022/08/29 03:56:40;;;;;;;16.33;9.27;;;;;;;20.87;86.81;94500.06;5053890;28;20670;-64
2022/08/29 03:59:05;;;;;;;14.82;8.60;;;;;;;20.88;87.14;94499.09;5053874;28;20290;-63
2022/08/29 04:01:31;;;;;;;11.65;7.88;;;;;;;21.16;85.44;94530.00;5053690;28;20260;-63
2022/08/29 04:03:57;;;;;;;16.27;8.70;;;;;;;21.15;84.24;94546.47;5053759;28;20634;-63
2022/08/29 04:06:27;;;;;;;14.70;7.75;;;;;;;21.16;83.31;94558.44;5053857;28;20190;-64
2022/08/29 04:08:52;;;;;;;13.35;8.95;;;;;;;21.07;82.14;94577.69;5053685;28;20228;-65
2022/08/29 04:11:19;;;;;;;13.63;8.68;;;;;;;20.78;84.74;94521.94;5053600;28;20651;-63
2022/08/29 04:13:46;;;;;;;16.70;9.45;;;;;;;20.85;85.12;94532.28;5053565;28;20674;-64
2022/08/29 04:16:18;;;;;;;14.85;8.52;;;;;;;20.82;84.53;94540.44;5053349;28;20187;-64
2022/08/29 04:18:44;;;;;;;11.50;7.78;;;;;;;20.64;84.21;94545.34;5052100;28;20221;-61
2022/08/29 04:21:10;;;;;;;10.38;7.15;;;;;;;20.66;83.85;94559.66;5053361;28;20608;-64
2022/08/29 04:23:37;;;;;;;15.32;8.02;;;;;;;20.78;82.75;94572.81;5053082;28;20294;-64
2022/08/29 04:26:03;;;;;;;13.43;7.60;;;;;;;20.85;82.67;94576.22;5053445;28;20196;-61
2022/08/29 04:28:28;;;;;;;15.77;7.50;;;;;;;20.80;81.35;94602.66;5053270;28;20213;-67
2022/08/29 04:30:54;;;;;;;14.77;7.82;;;;;;;20.75;80.83;94617.13;5053138;28;20551;-64
2022/08/29 04:33:22;;;;;;;10.38;7.45;;;;;;;20.70;82.18;94586.72;5051778;28;20319;-63
2022/08/29 04:35:48;;;;;;;11.00;7.22;;;;;;;20.62;81.68;94592.03;5053224;28;20181;-61
2022/08/29 04:38:14;;;;;;;10.50;7.03;;;;;;;20.73;81.50;94598.44;5051828;28;20214;-61
2022/08/29 04:40:41;;;;;;;15.57;8.23;;;;;;;20.88;79.77;94635.28;5053420;28;20185;-61
2022/08/29 04:43:08;;;;;;;9.40;7.57;;;;;;;20.79;80.79;94600.25;5051766;28;20186;-63
2022/08/29 04:45:34;;;;;;;15.15;7.65;;;;;;;20.86;79.54;94626.91;5053120;28;20280;-62
2022/08/29 04:48:01;;;;;;;10.50;7.28;;;;;;;20.73;80.32;94612.16;5052892;28;20273;-63
2022/08/29 04:50:27;;;;;;;11.85;6.70;;;;;;;20.54;81.44;94594.00;5051411;28;20217;-63
2022/08/29 04:52:53;;;;;;;10.02;7.85;;;;;;;20.48;82.65;94577.44;5052462;28;20624;-63
2022/08/29 04:55:21;;;;;;;12.40;9.48;;;;;;;20.50;82.99;94587.63;5052666;28;20213;-65
2022/08/29 04:57:47;;;;;;;12.40;7.75;;;;;;;20.64;83.07;94582.31;5051315;28;20200;-63
2022/08/29 05:00:16;;;;;;;12.07;8.13;;;;;;;20.60;82.93;94580.31;5052867;28;20288;-62
2022/08/29 05:02:43;;;;;;;12.13;7.72;;;;;;;20.62;83.84;94575.75;5052662;28;20186;-63
2022/08/29 05:05:12;;;;;;;15.23;8.05;;;;;;;20.68;83.45;94587.88;5052848;28;20220;-63
2022/08/29 05:07:38;;;;;;;13.00;7.97;;;;;;;20.73;83.81;94588.09;5051241;28;20659;-65
2022/08/29 05:10:09;;;;;;;12.32;8.07;;;;;;;20.83;84.78;94567.84;5052792;28;20216;-62
2022/08/29 05:12:36;;;;;;;14.05;8.35;;;;;;;20.90;84.79;94577.25;5051455;28;20194;-65
2022/08/29 05:15:03;;;;;;;15.50;8.30;;;;;;;20.88;84.48;94581.00;5051174;28;20213;-63
2022/08/29 05:17:29;;;;;;;10.88;7.80;;;;;;;21.15;81.89;94631.81;5051069;28;20182;-64
2022/08/29 05:19:54;;;;;;;20.42;12.77;;;;;;;21.17;86.67;94549.66;5052734;28;20216;-63
2022/08/29 05:22:20;;;;;;;17.45;8.82;;;;;;;21.21;82.91;94615.50;5052637;28;20204;-63
2022/08/29 05:24:47;;;;;;;13.00;8.45;;;;;;;21.17;84.28;94601.38;5044792;23;20779;-62
2022/08/29 05:27:17;;;;;;;13.38;8.50;;;;;;;21.32;84.96;94583.13;5032336;28;20186;-63
2022/08/29 05:29:45;;;;;;;11.98;7.25;;;;;;;21.20;81.70;94637.22;5032810;28;20300;-64
2022/08/29 05:32:17;;;;;;;11.80;8.18;;;;;;;21.18;82.41;94626.25;5032449;28;20190;-63
2022/08/29 05:34:43;;;;;;;11.82;8.88;;;;;;;21.29;82.92;94619.72;5032591;28;20684;-63
2022/08/29 05:37:11;;;;;;;15.10;9.02;;;;;;;21.17;82.09;94629.06;5031374;28;20798;-64
2022/08/29 05:39:38;;;;;;;13.45;7.88;;;;;;;21.04;83.15;94616.88;5030742;28;20786;-63
2022/08/29 05:42:06;;;;;;;12.85;8.32;;;;;;;21.12;83.54;94614.13;5031582;28;20202;-63
2022/08/29 05:47:18;;;;;;;11.05;8.30;;;;;;;21.15;85.28;94605.19;5032427;28;20204;-65
2022/08/29 05:49:44;;;;;;;10.98;8.75;;;;;;;21.36;85.15;94613.56;5031839;28;20591;-63
2022/08/29 05:52:11;;;;;;;9.68;8.68;;;;;;;21.38;84.99;94611.59;5032056;28;20578;-64
2022/08/29 05:54:39;;;;;;;12.20;8.88;;;;;;;21.52;85.22;94602.03;5032345;28;20676;-66
2022/08/29 05:57:06;;;;;;;13.32;8.68;;;;;;;21.29;87.06;94573.94;5031824;28;20209;-63
2022/08/29 05:59:32;;;;;;;12.43;9.23;;;;;;;21.31;87.14;94579.72;5032009;28;20210;-65
2022/08/29 06:01:57;;;;;;;14.00;9.05;;;;;;;21.44;85.81;94599.66;5030663;28;20580;-66
2022/08/29 06:04:23;;;;;;;12.98;8.88;;;;;;;21.66;85.14;94614.81;5030652;28;20271;-63
2022/08/29 06:06:49;;;;;;;15.80;8.82;;;;;;;21.77;84.47;94628.16;5032016;28;20194;-62
2022/08/29 06:09:15;;;;;;;14.95;8.23;;;;;;;21.72;85.25;94611.41;5031658;28;20205;-63
2022/08/29 06:11:45;;;;;;;13.48;8.20;;;;;;;22.04;81.79;94673.81;5031786;28;20189;-65
2022/08/29 06:14:13;;;;;;;14.73;8.80;;;;;;;21.84;81.64;94663.41;5030780;28;20305;-64
2022/08/29 06:16:38;;;;;;;15.68;9.20;;;;;;;21.89;82.53;94649.88;5031749;28;20196;-63
2022/08/29 06:19:04;;;;;;;11.30;8.52;;;;;;;21.80;84.05;94622.56;5031928;28;20210;-63
2022/08/29 06:21:29;;;;;;;20.17;10.20;;;;;;;21.80;84.29;94630.31;5030454;28;20197;-63
2022/08/29 06:23:56;;;;;;;19.88;11.32;;;;;;;21.78;83.27;94646.06;5031848;28;20202;-62
2022/08/29 06:26:21;;;;;;;17.50;11.68;;;;;;;21.75;81.61;94673.13;5031465;28;20512;-64
2022/08/29 06:28:47;;;;;;;17.95;10.98;;;;;;;21.86;81.07;94678.75;5031402;28;20209;-64
2022/08/29 06:31:19;;;;;;;14.43;10.93;;;;;;;22.04;83.04;94635.72;5030120;28;20186;-62
2022/08/29 06:33:45;;;;;;;20.67;11.02;;;;;;;22.20;81.17;94663.03;5030307;28;20221;-62
2022/08/29 06:36:12;;;;;;;13.27;10.25;;;;;;;22.15;81.81;94655.88;5031377;28;20315;-65
2022/08/29 06:38:38;;;;;;;13.70;9.90;;;;;;;22.40;80.83;94674.19;5030051;28;20275;-63
2022/08/29 06:41:10;;;;;;;15.45;11.88;;;;;;;22.19;82.59;94651.88;5031376;28;20193;-65
2022/08/29 06:43:36;;;;;;;18.95;11.90;;;;;;;22.32;82.65;94648.47;5031477;28;20207;-63
2022/08/29 06:46:02;;;;;;;24.58;14.50;;;;;;;22.26;83.14;94636.34;5031349;28;20190;-63
2022/08/29 06:48:27;;;;;;;20.60;14.00;;;;;;;22.65;81.99;94667.38;5030022;28;20245;-63
2022/08/29 06:50:53;;;;;;;23.42;16.85;;;;;;;22.75;81.53;94678.13;5031178;28;20188;-63
2022/08/29 06:53:20;;;;;;;22.15;14.40;;;;;;;22.87;80.98;94681.66;5031251;28;20543;-63
2022/08/29 06:55:46;;;;;;;24.23;12.75;;;;;;;23.01;81.68;94672.84;5031185;28;20190;-65
2022/08/29 06:58:11;;;;;;;23.27;13.80;;;;;;;23.00;82.70;94654.91;5029419;28;20221;-63
2022/08/29 07:00:42;;;;;;;22.75;14.52;;;;;;;23.00;83.01;94645.34;5028885;28;20266;-64
2022/08/29 07:03:07;;;;;;;22.85;13.63;;;;;;;23.11;82.84;94662.81;5029669;28;20618;-62
2022/08/29 07:05:33;;;;;;;25.27;14.43;;;;;;;23.14;83.33;94659.84;5029714;28;20186;-62
2022/08/29 07:07:59;;;;;;;26.95;14.45;;;;;;;22.96;81.85;94675.28;5031045;28;20217;-63
2022/08/29 07:10:25;;;;;;;26.42;13.75;;;;;;;23.05;82.05;94674.03;5030868;28;20288;-63
2022/08/29 07:12:52;;;;;;;22.15;13.20;;;;;;;23.03;82.72;94664.84;5029599;28;20285;-65
2022/08/29 07:15:20;;;;;;;23.52;12.85;;;;;;;23.35;80.54;94702.88;5030747;28;20801;-64
2022/08/29 07:17:46;;;;;;;24.27;12.68;;;;;;;23.59;78.15;94745.50;5030569;28;20201;-66
2022/08/29 07:20:12;;;;;;;19.65;12.63;;;;;;;23.51;78.76;94737.94;5029389;28;20285;-63
2022/08/29 07:22:37;;;;;;;18.13;13.25;;;;;;;23.34;80.01;94707.28;5030893;28;20229;-62
2022/08/29 07:25:03;;;;;;;21.80;14.77;;;;;;;23.34;80.09;94704.69;5030793;28;20548;-63
2022/08/29 07:27:29;;;;;;;23.25;12.55;;;;;;;23.57;78.99;94718.94;5030864;28;20269;-65
2022/08/29 07:29:54;;;;;;;15.13;12.35;;;;;;;23.45;78.86;94731.78;5030677;28;20239;-65
2022/08/29 07:32:20;;;;;;;19.08;12.27;;;;;;;23.83;76.38;94776.75;5029502;28;20189;-64
2022/08/29 07:34:45;;;;;;;17.38;11.60;;;;;;;23.80;77.92;94752.97;5030450;28;20213;-65
2022/08/29 07:37:11;;;;;;;23.00;12.25;;;;;;;23.64;77.29;94756.03;5030626;28;20682;-64
2022/08/29 07:39:36;;;;;;;23.85;11.90;;;;;;;23.53;76.23;94772.28;5030413;28;20230;-63
2022/08/29 07:42:03;;;;;;;19.85;13.63;;;;;;;23.44;75.13;94784.69;5028987;28;20189;-63
2022/08/29 07:44:29;;;;;;;22.73;13.65;;;;;;;23.45;75.29;94788.09;5030876;28;20216;-65
2022/08/29 07:46:57;;;;;;;25.40;10.27;;;;;;;23.53;75.84;94770.50;5030561;28;20324;-63
2022/08/29 07:49:27;;;;;;;17.02;11.00;;;;;;;23.67;75.18;94781.59;5030701;28;20691;-63
2022/08/29 07:51:54;;;;;;;17.50;10.73;;;;;;;23.73;73.30;94811.94;5029213;28;20563;-62
2022/08/29 07:54:21;;;;;;;15.07;10.25;;;;;;;23.75;74.23;94791.75;5030577;28;20224;-65
2022/08/29 07:56:49;;;;;;;16.63;9.93;;;;;;;24.03;74.51;94794.84;5028945;28;20296;-65
2022/08/29 07:59:16;;;;;;;20.17;10.55;;;;;;;24.18;74.52;94790.13;5030279;28;20602;-63
2022/08/29 08:01:41;;;;;;;20.00;9.80;;;;;;;24.05;72.58;94822.22;5030191;28;20239;-65
2022/08/29 08:04:09;;;;;;;20.70;8.98;;;;;;;24.15;70.49;94845.94;5030334;28;20297;-63
2022/08/29 08:06:35;;;;;;;20.35;9.35;;;;;;;24.07;70.33;94845.38;5030262;28;20197;-63
2022/08/29 08:09:03;;;;;;;16.00;8.80;;;;;;;24.30;70.23;94844.84;5029100;28;20215;-65
2022/08/29 08:11:36;;;;;;;12.13;8.10;;;;;;;24.19;69.66;94843.72;5030284;28;20201;-64
2022/08/29 08:14:02;;;;;;;13.02;8.45;;;;;;;24.29;69.31;94859.66;5033879;28;20715;-64
2022/08/29 08:16:29;;;;;;;17.55;8.48;;;;;;;24.31;68.59;94869.81;5032296;28;20190;-64
2022/08/29 08:18:55;;;;;;;15.52;8.57;;;;;;;24.27;68.08;94877.25;5033564;28;20218;-64
2022/08/29 08:21:23;;;;;;;12.43;9.43;;;;;;;24.33;68.56;94863.41;5064990;22;20300;-64
2022/08/29 08:23:48;;;;;;;13.38;8.15;;;;;;;24.38;68.20;94858.38;5067712;28;20205;-65
2022/08/29 08:26:15;;;;;;;16.17;8.38;;;;;;;24.63;67.97;94861.03;5052164;28;20243;-63
2022/08/29 08:28:42;;;;;;;15.18;8.55;;;;;;;24.73;68.13;94851.78;5053264;28;20209;-64
2022/08/29 08:31:09;;;;;;;9.55;8.02;;;;;;;24.87;67.62;94868.88;5053510;28;20189;-63
2022/08/29 08:33:39;;;;;;;15.07;8.48;;;;;;;25.09;67.80;94861.50;5053037;28;20214;-64
2022/08/29 08:36:18;;;;;;;13.00;7.35;;;;;;;25.22;65.81;94902.22;5052156;28;20734;-63
2022/08/29 08:38:44;;;;;;;15.75;7.82;;;;;;;25.28;65.11;94911.78;5053109;28;20260;-65
2022/08/29 08:41:16;;;;;;;15.70;7.57;;;;;;;25.36;64.38;94922.72;5053061;28;20656;-65
2022/08/29 08:43:52;;;;;;;9.02;7.15;;;;;;;25.50;64.55;94903.41;5063765;22;21349;-62
2022/08/29 08:46:28;;;;;;;14.23;8.90;;;;;;;25.53;64.37;94905.56;5073179;28;20184;-63
2022/08/29 08:48:58;;;;;;;19.73;8.85;;;;;;;25.72;62.79;94935.03;5066908;28;20569;-63
2022/08/29 08:51:29;;;;;;;15.10;8.75;;;;;;;25.81;62.47;94923.34;5053007;28;20268;-66
2022/08/29 08:53:58;;;;;;;13.32;8.48;;;;;;;25.93;63.39;94905.97;5052776;28;20278;-63
2022/08/29 08:56:36;;;;;;;14.10;8.70;;;;;;;26.23;63.12;94906.03;5052871;28;20238;-63
2022/08/29 08:59:33;;;;;;;17.65;8.48;;;;;;;26.49;61.88;94923.94;5053044;28;20201;-64
2022/08/29 09:01:59;;;;;;;15.40;8.00;;;;;;;26.82;61.59;94923.53;5051580;28;20201;-63
2022/08/29 09:04:56;;;;;;;14.85;7.50;;;;;;;27.01;61.58;94919.81;5053095;28;20259;-64
2022/08/29 09:07:30;;;;;;;12.40;8.10;;;;;;;27.34;62.22;94900.03;5051378;28;20695;-63
2022/08/29 09:10:24;;;;;;;19.45;9.60;;;;;;;27.25;61.10;94924.06;5052759;28;20212;-63
2022/08/29 09:13:13;;;;;;;16.13;8.52;;;;;;;27.39;59.50;94959.44;5052441;28;20192;-63
2022/08/29 09:15:45;;;;;;;16.65;8.45;;;;;;;27.73;58.99;94960.47;5052594;28;20726;-64
2022/08/29 09:18:12;;;;;;;17.88;8.70;;;;;;;27.76;58.60;94954.75;5052490;28;20205;-64
2022/08/29 09:20:40;;;;;;;14.18;8.13;;;;;;;27.63;58.50;94945.34;5052612;28;20194;-63
2022/08/29 09:23:28;;;;;;;14.55;8.88;;;;;;;27.61;58.85;94936.94;5052154;28;20186;-63
2022/08/29 09:25:54;;;;;;;14.85;8.55;;;;;;;27.81;58.79;94926.94;5052735;28;20304;-65
2022/08/29 09:28:20;;;;;;;15.38;8.57;;;;;;;27.95;58.28;94949.22;5052655;28;20658;-63
2022/08/29 09:31:26;;;;;;;12.63;7.68;;;;;;;27.82;57.86;94949.44;5052379;28;20587;-63
2022/08/29 09:34:04;;;;;;;17.90;8.60;;;;;;;28.19;57.14;94955.19;5052245;28;20278;-63
2022/08/29 09:36:56;;;;;;;16.05;8.85;;;;;;;28.34;57.44;94947.69;5052397;28;20197;-63
2022/08/29 09:39:23;;;;;;;11.30;8.15;;;;;;;28.31;56.15;94963.00;5069406;22;20248;-62
2022/08/29 09:41:56;;;;;;;12.95;8.63;;;;;;;28.17;55.77;94958.06;5072085;28;20188;-63
2022/08/29 09:44:29;;;;;;;13.30;8.02;;;;;;;28.36;56.09;94945.63;5062058;28;20243;-64
2022/08/29 09:47:22;;;;;;;14.95;8.10;;;;;;;28.15;56.28;94951.47;5052271;28;20571;-64
2022/08/29 09:50:23;;;;;;;14.07;8.02;;;;;;;28.14;56.20;94936.78;5049976;28;20222;-63
2022/08/29 09:52:59;;;;;;;17.30;8.68;;;;;;;28.39;56.78;94924.22;5052221;28;20221;-65
2022/08/29 09:55:43;;;;;;;16.70;8.38;;;;;;;28.43;56.55;94927.16;5076856;22;20216;-63
2022/08/29 09:58:32;;;;;;;9.23;7.85;;;;;;;28.47;54.80;94954.44;5071767;28;20304;-63
2022/08/29 10:01:03;;;;;;;10.38;8.00;;;;;;;28.40;55.10;94946.75;5052066;28;20185;-63
2022/08/29 10:03:33;;;;;;;15.75;8.77;;;;;;;28.24;55.80;94929.13;5051845;28;20570;-65
2022/08/29 10:06:22;;;;;;;16.00;8.18;;;;;;;28.41;54.64;94952.75;5062869;22;20216;-63
2022/08/29 10:09:01;;;;;;;14.95;8.23;;;;;;;28.50;54.60;94956.59;5066195;28;20332;-62
2022/08/29 10:11:48;;;;;;;12.80;8.18;;;;;;;28.55;55.53;94912.19;5051973;28;20182;-65
2022/08/29 10:14:30;;;;;;;12.63;8.38;;;;;;;28.37;55.07;94938.53;5051410;28;20374;-64
2022/08/29 10:18:19;;;;;;;12.90;8.18;;;;;;;27.74;55.91;94900.13;5051891;28;20239;-66
2022/08/29 10:19:46;;;;;;;11.35;8.50;;;;;;;27.47;56.83;94874.69;5051167;28;20225;-64
2022/08/29 10:22:28;;;;;;;12.60;8.18;;;;;;;27.26;57.08;94865.59;5052004;28;20184;-66
2022/08/29 10:25:30;;;;;;;16.50;8.25;;;;;;;26.92;58.09;94817.56;5051517;28;20236;-64
2022/08/29 10:28:14;;;;;;;12.73;7.95;;;;;;;26.75;58.78;94815.81;5030079;28;20625;-63
2022/08/29 10:31:11;;;;;;;13.18;8.38;;;;;;;26.57;59.55;94798.44;5050098;28;20749;-64
2022/08/29 10:33:46;;;;;;;10.88;7.72;;;;;;;26.40;60.51;94781.84;5051258;28;20290;-64
2022/08/29 10:36:32;;;;;;;12.05;8.70;;;;;;;26.13;61.86;94742.34;5050552;28;20185;-64
2022/08/29 10:39:11;;;;;;;17.83;8.35;;;;;;;26.05;62.14;94732.19;5051346;28;20214;-65
2022/08/29 10:41:43;;;;;;;10.43;7.88;;;;;;;25.99;62.37;94735.69;5051669;28;20544;-63
2022/08/29 10:44:33;;;;;;;15.05;8.45;;;;;;;25.88;62.67;94730.44;5049857;28;20298;-64
2022/08/29 10:47:07;;;;;;;13.65;8.55;;;;;;;25.84;63.39;94726.72;5077962;22;20339;-64
2022/08/29 10:49:35;;;;;;;12.63;8.27;;;;;;;25.78;62.57;94742.19;5059035;28;20220;-63
2022/08/29 10:52:43;;;;;;;12.40;7.78;;;;;;;25.78;62.32;94741.38;5051351;28;20655;-63
2022/08/29 10:55:31;;;;;;;10.52;7.15;;;;;;;25.95;61.31;94763.22;5065654;22;20232;-62
2022/08/29 10:58:10;;;;;;;12.00;7.50;;;;;;;25.68;62.08;94739.31;5071044;28;20180;-65
2022/08/29 11:00:58;;;;;;;13.02;7.53;;;;;;;25.80;61.98;94745.38;5071056;22;20224;-63
2022/08/29 11:03:38;;;;;;;18.45;8.38;;;;;;;25.65;63.11;94715.53;5068955;28;20181;-65
2022/08/29 11:06:26;;;;;;;12.73;7.75;;;;;;;25.57;64.53;94687.19;5050871;28;20223;-63
2022/08/29 11:09:04;;;;;;;12.73;7.28;;;;;;;25.55;63.92;94694.44;5050784;28;20255;-64
2022/08/29 11:11:32;;;;;;;14.15;7.65;;;;;;;25.61;65.28;94677.91;5051086;28;20185;-65
2022/08/29 11:14:07;;;;;;;13.80;7.80;;;;;;;25.62;64.37;94685.50;5049553;28;20301;-62
2022/08/29 11:16:45;;;;;;;10.52;7.47;;;;;;;25.78;64.00;94689.28;5073816;22;20304;-63
2022/08/29 11:19:19;;;;;;;11.45;7.63;;;;;;;25.72;64.16;94670.13;5062113;28;20221;-64
2022/08/29 11:21:51;;;;;;;11.98;7.10;;;;;;;25.92;63.58;94689.91;5050896;28;20539;-64
2022/08/29 11:24:19;;;;;;;14.32;8.38;;;;;;;25.98;63.95;94671.53;5050790;28;20243;-64
2022/08/29 11:26:45;;;;;;;12.90;7.32;;;;;;;26.09;62.03;94725.56;5050953;28;20186;-66
2022/08/29 11:29:46;;;;;;;16.48;7.40;;;;;;;26.24;61.79;94715.47;5050860;28;20212;-63
2022/08/29 11:35:22;;;;;;;10.98;6.97;;;;;;;26.68;58.90;94778.59;5063462;22;20264;-65
2022/08/29 11:38:15;;;;;;;12.93;6.78;;;;;;;26.93;55.54;94860.91;5041965;28;20205;-64
2022/08/29 11:40:55;;;;;;;10.73;6.80;;;;;;;27.27;54.88;94867.19;5050602;28;20196;-62
2022/08/29 11:43:27;;;;;;;11.48;7.05;;;;;;;27.56;51.84;94952.50;5050589;28;20213;-62
2022/08/29 11:46:04;;;;;;;10.65;6.90;;;;;;;27.58;52.77;94908.66;5050261;28;20717;-62
2022/08/29 11:48:46;;;;;;;12.48;7.28;;;;;;;27.63;53.56;94872.19;5053997;28;20263;-62